^^

Nearby METAR Reports

 

EGHH - Bournemouth Airp, United Kingdom
Distance from station: S 10mi, 17km
Updated: 22/10/2018 23:50
NOT Current
Clear
Clear
 Wind from NW
Wind: NW 1 mph , 2 km/h
Temperature: 2°C
Dew Point: 0°C
Humidity: 87%
Barometer: 1038 hPa
Summary: Clear
Visibility: greater than 7 miles , 10 km
2018/10/22 22:50 EGHH 222250Z 31001KT CAVOK 02/00 Q1038
EGDM - Boscombe Down, United Kingdom
Distance from station: N 16mi, 26km
Updated: 23/10/2018 01:50
Clear
Clear
 Wind from W
Wind: W 7 mph , 11 km/h
Temperature: 5°C
Wind Chill: 2°C
Dew Point: 4°C
Humidity: 93%
Barometer: 1036 hPa
Clouds: Clear
Visibility: 6 miles , 10 km
2018/10/23 00:50 EGDM 230050Z AUTO 27006KT 9999 NCD 05/04 Q1036
 
EGVP - Middle Wallop, United Kingdom
Distance from station: NE 17mi, 27km
Updated: 23/10/2018 01:50
Clear
Clear
 Wind from W
Wind: W 1 mph , 2 km/h
Temperature: 4°C
Dew Point: 3°C
Humidity: 93%
Barometer: 1036 hPa
Clouds: Clear
Visibility: 6 miles , 10 km
2018/10/23 00:50 EGVP 230050Z AUTO 27001KT 9999 // NCD 04/03 Q1036
EGHI - Southampton Wx C, United Kingdom
Distance from station: E 19mi, 31km
Updated: 22/10/2018 22:50
NOT Current
Clear
Clear
 Wind from calm
Wind: Calm
Temperature: 2°C
Dew Point: 1°C
Humidity: 93%
Barometer: 1037 hPa
Summary: Clear
Visibility: greater than 7 miles , 10 km
2018/10/22 21:50 EGHI 222150Z 00000KT CAVOK 02/01 Q1037
 
EGDY - Yeovilton (navy), United Kingdom
Distance from station: W 36mi, 58km
Updated: 23/10/2018 02:50
Mostly cloudy
Mostly cloudy
 Wind from ESE
Wind: ESE 1 mph , 2 km/h
Temperature: 3°C
Dew Point: 2°C
Humidity: 93%
Barometer: 1036 hPa
Clouds: Mostly cloudy
Visibility: 6 miles , 10 km
Cloud details: Few Clouds 1219 m
Mostly cloudy 6096 m
2018/10/23 01:50 EGDY 230150Z 12001KT 9999 FEW040 BKN200 03/02 Q1036 BLU
EGUO - Colerne Raf, United Kingdom
Distance from station: NNW 41mi, 66km
Updated: 21/03/2018 08:50
NOT Current
Clear
Clear
 Wind from W
Wind: W 6 mph , 9 km/h
Temperature: 5°C
Wind Chill: 3°C
Dew Point: 1°C
Humidity: 76%
Barometer: 1032 hPa
Clouds: Clear
Visibility: 6 miles , 10 km
2018/03/21 08:50 EGUO 210850Z 27005KT 9999 NCD 05/01 Q1032 BLU NOSIG
 
EGVO - Odiham Raf, United Kingdom
Distance from station: ENE 42mi, 68km
Updated: 23/10/2018 02:50
Clear
Clear
 Wind from WSW
Wind: WSW 10 mph , 17 km/h
Temperature: 5°C
Wind Chill: 2°C
Dew Point: 4°C
Humidity: 93%
Barometer: 1034 hPa
Summary: Clear
Visibility: greater than 7 miles , 10 km
2018/10/23 01:50 EGVO 230150Z 24009KT CAVOK 05/04 Q1034 BLU
EGGD - Bristol/Lulsgate, United Kingdom
Distance from station: NW 50mi, 81km
Updated: 23/10/2018 02:50
Clear
Clear
 Wind from W
Wind: W 15 mph , 24 km/h
Temperature: 8°C
Wind Chill: 4°C
Dew Point: 7°C
Humidity: 93%
Barometer: 1036 hPa
Clouds: Clear
Visibility: 6 miles , 10 km
2018/10/23 01:50 EGGD 230150Z AUTO 26013KT 9999 NCD 08/07 Q1036